createdAt,value
2017-10-20T00:02:19.434Z,17.10
2017-10-20T00:04:47.377Z,17.10
2017-10-20T00:07:15.082Z,17.10
2017-10-20T00:09:42.700Z,17.10
2017-10-20T00:12:10.290Z,17.10
2017-10-20T00:14:37.893Z,17.10
2017-10-20T00:17:06.388Z,17.10
2017-10-20T00:19:33.994Z,17.10
2017-10-20T00:22:01.582Z,17.10
2017-10-20T00:24:29.166Z,17.10
2017-10-20T00:26:57.518Z,17.10
2017-10-20T00:29:25.114Z,17.10
2017-10-20T00:31:55.094Z,17.10
2017-10-20T00:34:22.666Z,17.10
2017-10-20T00:36:51.017Z,17.20
2017-10-20T00:39:18.635Z,17.10
2017-10-20T00:41:46.211Z,17.20
2017-10-20T00:44:13.792Z,17.20
2017-10-20T00:46:41.366Z,17.20
2017-10-20T00:49:08.956Z,17.20
2017-10-20T00:51:37.318Z,17.20
2017-10-20T00:54:04.933Z,17.20
2017-10-20T00:56:32.500Z,17.30
2017-10-20T00:59:00.272Z,17.20
2017-10-20T01:01:27.916Z,17.30
2017-10-20T01:03:55.491Z,17.30
2017-10-20T01:06:23.942Z,17.30
2017-10-20T01:08:52.311Z,17.30
2017-10-20T01:11:20.653Z,17.20
2017-10-20T01:13:48.272Z,17.20
2017-10-20T01:16:16.579Z,17.20
2017-10-20T01:18:44.159Z,17.20
2017-10-20T01:21:11.798Z,17.20
2017-10-20T01:23:39.354Z,17.20
2017-10-20T01:26:06.949Z,17.20
2017-10-20T01:28:34.548Z,17.20
2017-10-20T01:31:02.917Z,17.30
2017-10-20T01:33:31.258Z,17.20
2017-10-20T01:35:58.829Z,17.20
2017-10-20T01:38:26.778Z,17.20
2017-10-20T01:40:54.369Z,17.20
2017-10-20T01:43:21.932Z,17.20
2017-10-20T01:45:49.529Z,17.20
2017-10-20T01:48:17.112Z,17.20
2017-10-20T01:50:44.698Z,17.30
2017-10-20T01:53:12.319Z,17.30
2017-10-20T01:55:39.874Z,17.30
2017-10-20T01:58:07.770Z,17.30
2017-10-20T02:00:35.634Z,17.30
2017-10-20T02:03:03.700Z,17.30
2017-10-20T02:05:31.284Z,17.30
2017-10-20T02:07:58.867Z,17.30
2017-10-20T02:10:27.401Z,17.30
2017-10-20T02:12:54.975Z,17.30
2017-10-20T02:15:23.351Z,17.30
2017-10-20T02:17:50.928Z,17.30
2017-10-20T02:20:18.551Z,17.30
2017-10-20T02:22:46.123Z,17.30
2017-10-20T02:25:13.702Z,17.40
2017-10-20T02:27:41.279Z,17.40
2017-10-20T02:30:08.896Z,17.40
2017-10-20T02:32:38.407Z,17.40
2017-10-20T02:35:21.237Z,17.40
2017-10-20T02:37:48.824Z,17.40
2017-10-20T02:40:16.418Z,17.30
2017-10-20T02:42:44.343Z,17.30
2017-10-20T02:45:11.962Z,17.30
2017-10-20T02:47:41.170Z,17.30
2017-10-20T02:50:08.747Z,17.30
2017-10-20T02:52:36.362Z,17.30
2017-10-20T02:55:04.804Z,17.30
2017-10-20T02:57:32.386Z,17.20
2017-10-20T03:00:00.447Z,17.20
2017-10-20T03:02:28.075Z,17.10
2017-10-20T03:04:56.364Z,17.10
2017-10-20T03:07:23.942Z,17.10
2017-10-20T03:09:51.548Z,17.10
2017-10-20T03:12:19.990Z,17.10
2017-10-20T03:14:47.569Z,17.10
2017-10-20T03:17:15.155Z,17.10
2017-10-20T03:19:43.486Z,17.20
2017-10-20T03:22:11.069Z,17.10
2017-10-20T03:24:38.666Z,17.20
2017-10-20T03:27:07.008Z,17.10
2017-10-20T03:29:34.924Z,17.10
2017-10-20T03:32:03.251Z,17.10
2017-10-20T03:34:31.015Z,17.10
2017-10-20T03:36:58.582Z,17.10
2017-10-20T03:39:26.198Z,17.10
2017-10-20T03:41:53.760Z,17.10
2017-10-20T03:44:21.594Z,17.10
2017-10-20T03:46:49.144Z,17.00
2017-10-20T03:49:16.758Z,17.00
2017-10-20T03:51:44.325Z,17.10
2017-10-20T03:54:11.898Z,17.00
2017-10-20T03:56:39.521Z,17.10
2017-10-20T03:59:07.116Z,17.10
2017-10-20T04:01:34.683Z,17.10
2017-10-20T04:04:02.428Z,17.10
2017-10-20T04:06:30.014Z,17.10
2017-10-20T04:08:57.610Z,17.00
2017-10-20T04:11:26.315Z,17.10
2017-10-20T04:13:54.859Z,17.00
2017-10-20T04:16:23.070Z,17.00
2017-10-20T04:18:51.420Z,17.00
2017-10-20T04:21:19.228Z,17.00
2017-10-20T04:23:47.085Z,17.00
2017-10-20T04:26:14.706Z,17.00
2017-10-20T04:28:42.300Z,17.00
2017-10-20T04:31:10.679Z,17.00
2017-10-20T04:33:38.294Z,17.00
2017-10-20T04:36:05.870Z,17.00
2017-10-20T04:38:33.504Z,17.00
2017-10-20T04:41:02.224Z,17.00
2017-10-20T04:43:29.845Z,16.90
2017-10-20T04:45:57.429Z,16.90
2017-10-20T04:48:25.166Z,17.00
2017-10-20T04:50:52.927Z,17.00
2017-10-20T04:53:21.006Z,17.00
2017-10-20T04:55:48.606Z,17.10
2017-10-20T04:58:16.205Z,17.20
2017-10-20T05:00:44.566Z,17.20
2017-10-20T05:03:12.157Z,17.20
2017-10-20T05:05:39.809Z,17.30
2017-10-20T05:21:07.409Z,17.30
2017-10-20T05:23:34.995Z,16.80
2017-10-20T05:26:02.586Z,16.60
2017-10-20T05:28:30.943Z,16.50
2017-10-20T05:30:59.945Z,16.50
2017-10-20T05:33:29.123Z,16.40
2017-10-20T05:35:56.699Z,16.40
2017-10-20T05:38:24.258Z,16.40
2017-10-20T05:40:51.928Z,16.30
2017-10-20T05:43:20.608Z,16.00
2017-10-20T05:45:48.706Z,16.00
2017-10-20T05:48:16.314Z,15.80
2017-10-20T05:50:43.918Z,15.60
2017-10-20T05:53:12.278Z,15.30
2017-10-20T05:55:40.038Z,15.30
2017-10-20T05:58:07.602Z,15.20
2017-10-20T06:00:35.207Z,15.00
2017-10-20T06:03:03.158Z,14.90
2017-10-20T06:05:32.161Z,14.80
2017-10-20T06:08:00.479Z,14.70
2017-10-20T06:10:28.100Z,14.70
2017-10-20T06:12:56.539Z,14.60
2017-10-20T06:15:24.127Z,14.50
2017-10-20T06:17:52.866Z,14.50
2017-10-20T06:20:20.451Z,14.50
2017-10-20T06:22:48.057Z,14.50
2017-10-20T06:25:16.443Z,14.40
2017-10-20T06:27:44.062Z,14.50
2017-10-20T06:30:11.634Z,14.40
2017-10-20T06:32:39.255Z,14.30
2017-10-20T06:35:06.855Z,14.30
2017-10-20T06:37:34.452Z,14.30
2017-10-20T06:40:02.055Z,14.20
2017-10-20T06:42:32.405Z,14.20
2017-10-20T06:45:00.754Z,14.10
2017-10-20T06:47:28.323Z,14.10
2017-10-20T06:49:56.799Z,14.10
2017-10-20T06:52:24.575Z,14.10
2017-10-20T06:54:52.174Z,14.10
2017-10-20T06:57:20.518Z,14.10
2017-10-20T06:59:48.856Z,14.00
2017-10-20T07:02:16.585Z,14.10
2017-10-20T07:04:44.949Z,14.00
2017-10-20T07:07:12.543Z,14.00
2017-10-20T07:09:40.197Z,14.00
2017-10-20T07:12:08.629Z,14.00
2017-10-20T07:14:36.210Z,14.00
2017-10-20T07:17:04.031Z,14.00
2017-10-20T07:19:34.098Z,14.00
2017-10-20T07:22:01.671Z,14.00
2017-10-20T07:24:29.263Z,14.00
2017-10-20T07:26:56.991Z,14.00
2017-10-20T07:29:24.595Z,14.10
2017-10-20T07:31:52.136Z,14.10
2017-10-20T07:34:20.493Z,14.20
2017-10-20T07:36:48.327Z,14.10
2017-10-20T07:39:15.882Z,14.20
2017-10-20T07:41:43.494Z,14.30
2017-10-20T07:44:11.851Z,14.40
2017-10-20T07:46:39.683Z,14.40
2017-10-20T07:49:07.246Z,14.50
2017-10-20T07:51:34.902Z,14.50
2017-10-20T07:54:02.502Z,14.60
2017-10-20T07:56:30.159Z,14.70
2017-10-20T07:58:57.743Z,14.80
2017-10-20T08:01:26.310Z,14.90
2017-10-20T08:03:54.550Z,14.90
2017-10-20T08:06:22.182Z,15.00
2017-10-20T08:08:50.574Z,15.10
2017-10-20T08:11:18.945Z,15.20
2017-10-20T08:13:47.304Z,15.40
2017-10-20T08:16:14.893Z,15.40
2017-10-20T08:18:42.531Z,15.70
2017-10-20T08:21:10.909Z,17.40
2017-10-20T08:23:38.820Z,17.40
2017-10-20T08:26:06.385Z,17.70
2017-10-20T08:28:33.979Z,18.10
2017-10-20T08:31:01.598Z,18.60
2017-10-20T08:33:29.205Z,18.90
2017-10-20T08:35:56.806Z,18.60
2017-10-20T08:38:24.455Z,18.90
2017-10-20T08:40:52.844Z,18.90
2017-10-20T08:43:21.217Z,18.10
2017-10-20T08:45:49.594Z,17.80
2017-10-20T08:48:17.988Z,17.70
2017-10-20T08:50:46.338Z,17.70
2017-10-20T08:53:13.966Z,17.70
2017-10-20T08:55:42.327Z,17.50
2017-10-20T08:58:09.952Z,17.40
2017-10-20T09:00:39.084Z,17.30
2017-10-20T09:03:06.836Z,17.30
2017-10-20T09:05:34.410Z,17.30
2017-10-20T09:08:02.002Z,17.20
2017-10-20T09:10:29.597Z,17.30
2017-10-20T09:12:58.449Z,17.60
2017-10-20T09:15:26.069Z,17.60
2017-10-20T09:17:53.665Z,17.70
2017-10-20T09:20:21.278Z,17.70
2017-10-20T09:22:49.635Z,17.40
2017-10-20T09:25:17.854Z,17.40
2017-10-20T09:27:45.425Z,17.20
2017-10-20T09:30:13.010Z,17.00
2017-10-20T09:32:40.631Z,16.90
2017-10-20T09:35:09.079Z,16.70
2017-10-20T09:37:36.676Z,16.70
2017-10-20T09:40:05.146Z,16.60
2017-10-20T09:42:33.519Z,16.60
2017-10-20T09:45:01.884Z,16.60
2017-10-20T09:47:29.491Z,16.60
2017-10-20T09:49:57.068Z,16.60
2017-10-20T09:52:24.659Z,16.60
2017-10-20T09:54:52.292Z,16.50
2017-10-20T09:57:19.891Z,16.50
2017-10-20T09:59:47.482Z,16.30
2017-10-20T10:02:15.370Z,16.10
2017-10-20T10:04:42.962Z,15.80
2017-10-20T10:07:10.526Z,15.50
2017-10-20T10:09:38.133Z,15.10
2017-10-20T10:12:06.473Z,14.30
2017-10-20T10:14:34.046Z,14.30
2017-10-20T10:17:01.731Z,13.90
2017-10-20T10:19:29.306Z,13.70
2017-10-20T10:21:56.908Z,13.50
2017-10-20T10:24:24.524Z,13.60
2017-10-20T10:26:52.118Z,13.60
2017-10-20T10:29:20.473Z,13.80
2017-10-20T10:31:48.418Z,13.80
2017-10-20T10:34:17.479Z,14.20
2017-10-20T10:36:45.051Z,14.20
2017-10-20T10:39:12.618Z,15.30
2017-10-20T10:41:40.210Z,16.20
2017-10-20T10:44:08.568Z,16.90
2017-10-20T10:46:36.173Z,17.00
2017-10-20T10:49:04.083Z,17.00
2017-10-20T10:51:31.672Z,16.80
2017-10-20T10:54:00.011Z,16.30
2017-10-20T10:56:28.334Z,16.30
2017-10-20T10:58:56.783Z,16.10
2017-10-20T11:01:24.369Z,16.10
2017-10-20T11:03:52.726Z,16.60
2017-10-20T11:06:32.327Z,16.60
2017-10-20T11:09:11.658Z,16.80
2017-10-20T11:11:51.182Z,16.60
2017-10-20T11:14:19.489Z,16.70
2017-10-20T11:16:47.110Z,16.70
2017-10-20T11:19:15.450Z,16.70
2017-10-20T11:21:43.030Z,16.70
2017-10-20T11:24:10.610Z,16.90
2017-10-20T11:26:38.946Z,17.20
2017-10-20T11:29:06.642Z,17.20
2017-10-20T11:31:34.730Z,17.10
2017-10-20T11:34:03.129Z,17.60
2017-10-20T11:36:30.736Z,17.50
2017-10-20T11:38:58.319Z,17.60
2017-10-20T11:41:25.906Z,17.50
2017-10-20T11:43:53.458Z,17.30
2017-10-20T11:46:21.060Z,17.20
2017-10-20T11:48:48.644Z,17.20
2017-10-20T11:51:17.311Z,17.30
2017-10-20T11:53:44.903Z,17.10
2017-10-20T11:56:12.558Z,16.70
2017-10-20T11:58:40.148Z,16.50
2017-10-20T12:01:08.524Z,16.40
2017-10-20T12:03:36.867Z,16.50
2017-10-20T12:06:04.438Z,16.50
2017-10-20T12:08:32.042Z,16.80
2017-10-20T12:10:59.645Z,16.60
2017-10-20T12:13:28.176Z,17.00
2017-10-20T12:15:56.531Z,17.50
2017-10-20T12:18:24.162Z,17.50
2017-10-20T12:20:51.820Z,17.70
2017-10-20T12:23:19.416Z,18.00
2017-10-20T12:25:47.027Z,18.10
2017-10-20T12:28:14.607Z,18.00
2017-10-20T12:30:42.210Z,18.00
2017-10-20T12:33:10.626Z,17.80
2017-10-20T12:35:38.220Z,17.70
2017-10-20T12:38:05.803Z,17.40
2017-10-20T12:40:33.434Z,17.00
2017-10-20T12:43:01.025Z,16.90
2017-10-20T12:45:28.644Z,16.70
2017-10-20T12:47:56.411Z,16.50
2017-10-20T12:50:24.097Z,16.40
2017-10-20T12:52:51.714Z,16.40
2017-10-20T12:55:19.303Z,16.50
2017-10-20T12:57:47.866Z,16.60
2017-10-20T13:00:15.442Z,16.80
2017-10-20T13:02:43.054Z,16.90
2017-10-20T13:05:10.655Z,17.00
2017-10-20T13:07:38.355Z,16.90
2017-10-20T13:10:05.940Z,16.70
2017-10-20T13:12:33.543Z,16.60
2017-10-20T13:15:01.419Z,16.60
2017-10-20T13:17:28.999Z,16.50
2017-10-20T13:19:56.654Z,16.50
2017-10-20T13:22:24.271Z,16.50
2017-10-20T13:24:52.630Z,16.60
2017-10-20T13:27:20.299Z,16.60
2017-10-20T13:29:47.894Z,16.70
2017-10-20T13:32:15.467Z,16.70
2017-10-20T13:34:43.082Z,16.60
2017-10-20T13:37:10.650Z,16.40
2017-10-20T13:39:39.029Z,16.20
2017-10-20T13:42:07.383Z,16.10
2017-10-20T13:44:34.960Z,16.00
2017-10-20T13:47:02.623Z,16.10
2017-10-20T13:49:30.310Z,15.90
2017-10-20T13:51:58.720Z,15.90
2017-10-20T13:54:26.376Z,15.90
2017-10-20T13:56:53.963Z,15.90
2017-10-20T13:59:21.787Z,16.00
2017-10-20T14:01:49.395Z,15.90
2017-10-20T14:04:16.978Z,16.00
2017-10-20T14:06:44.575Z,16.00
2017-10-20T14:09:12.148Z,16.00
2017-10-20T14:11:40.927Z,16.00
2017-10-20T14:14:08.508Z,16.00
2017-10-20T14:16:36.127Z,16.00
2017-10-20T14:19:04.487Z,15.90
2017-10-20T14:21:32.432Z,15.90
2017-10-20T14:24:00.047Z,16.00
2017-10-20T14:26:28.383Z,16.00
2017-10-20T14:28:56.000Z,16.00
2017-10-20T14:31:23.606Z,16.00
2017-10-20T14:33:51.208Z,16.00
2017-10-20T14:36:19.635Z,15.90
2017-10-20T14:38:47.206Z,15.90
2017-10-20T14:41:14.795Z,15.90
2017-10-20T14:43:43.169Z,15.80
2017-10-20T14:46:10.766Z,15.70
2017-10-20T14:48:38.365Z,15.80
2017-10-20T14:51:05.966Z,15.80
2017-10-20T14:53:34.298Z,15.70
2017-10-20T14:56:01.893Z,15.70
2017-10-20T14:58:29.486Z,15.70
2017-10-20T15:00:57.071Z,15.60
2017-10-20T15:03:24.690Z,15.70
2017-10-20T15:05:53.042Z,15.70
2017-10-20T15:08:21.174Z,15.70
2017-10-20T15:10:48.787Z,15.70
2017-10-20T15:13:16.361Z,15.70
2017-10-20T15:15:44.705Z,15.70
2017-10-20T15:18:12.310Z,15.70
2017-10-20T15:20:40.687Z,15.60
2017-10-20T15:23:09.027Z,15.60
2017-10-20T15:25:36.671Z,15.60
2017-10-20T15:28:04.244Z,15.50
2017-10-20T15:30:31.846Z,15.50
2017-10-20T15:32:59.768Z,15.40
2017-10-20T15:35:27.453Z,15.40
2017-10-20T15:37:55.051Z,15.30
2017-10-20T15:40:23.427Z,15.30
2017-10-20T15:42:51.794Z,15.20
2017-10-20T15:45:19.392Z,15.20
2017-10-20T15:47:47.019Z,15.20
2017-10-20T15:50:14.627Z,15.10
2017-10-20T15:52:42.198Z,15.10
2017-10-20T15:55:10.651Z,14.70
2017-10-20T15:57:38.486Z,14.70
2017-10-20T16:00:06.228Z,14.60
2017-10-20T16:02:33.799Z,14.50
2017-10-20T16:05:01.734Z,14.40
2017-10-20T16:07:29.310Z,14.40
2017-10-20T16:09:57.268Z,14.30
2017-10-20T16:12:24.823Z,14.30
2017-10-20T16:14:52.435Z,14.20
2017-10-20T16:17:20.025Z,14.30
2017-10-20T16:19:47.874Z,14.30
2017-10-20T16:22:15.471Z,14.20
2017-10-20T16:24:43.047Z,14.20
2017-10-20T16:27:11.008Z,14.30
2017-10-20T16:29:38.582Z,14.30
2017-10-20T16:32:06.153Z,14.40
2017-10-20T16:34:33.767Z,14.40
2017-10-20T16:37:01.378Z,14.40
2017-10-20T16:39:28.962Z,14.40
2017-10-20T16:41:56.595Z,14.40
2017-10-20T16:44:24.997Z,14.50
2017-10-20T16:46:52.574Z,14.40
2017-10-20T16:49:20.254Z,14.50
2017-10-20T16:51:47.937Z,14.50
2017-10-20T16:54:15.508Z,14.50
2017-10-20T16:56:43.099Z,14.50
2017-10-20T16:59:11.000Z,14.50
2017-10-20T17:01:39.350Z,14.50
2017-10-20T17:04:06.933Z,14.50
2017-10-20T17:06:35.296Z,14.50
2017-10-20T17:09:02.890Z,14.50
2017-10-20T17:11:30.508Z,14.50
2017-10-20T17:13:58.115Z,14.50
2017-10-20T17:16:25.712Z,14.50
2017-10-20T17:18:53.292Z,14.50
2017-10-20T17:21:20.896Z,14.50
2017-10-20T17:23:49.266Z,14.50
2017-10-20T17:26:17.639Z,14.50
2017-10-20T17:28:45.995Z,14.40
2017-10-20T17:31:13.586Z,14.50
2017-10-20T17:33:41.915Z,14.40
2017-10-20T17:36:09.510Z,14.40
2017-10-20T17:38:37.109Z,14.40
2017-10-20T17:41:04.710Z,14.30
2017-10-20T17:43:32.306Z,14.30
2017-10-20T17:45:59.952Z,14.30
2017-10-20T17:48:27.523Z,14.30
2017-10-20T17:50:55.130Z,14.30
2017-10-20T17:53:22.788Z,14.20
2017-10-20T17:55:50.391Z,14.20
2017-10-20T17:58:17.971Z,14.20
2017-10-20T18:00:46.399Z,14.20
2017-10-20T18:03:14.033Z,14.20
2017-10-20T18:05:42.847Z,14.20
2017-10-20T18:08:10.828Z,14.20
2017-10-20T18:10:38.436Z,14.20
2017-10-20T18:13:06.071Z,14.20
2017-10-20T18:15:33.652Z,14.20
2017-10-20T18:18:01.235Z,14.10
2017-10-20T18:20:29.605Z,14.10
2017-10-20T18:22:58.035Z,14.10
2017-10-20T18:25:25.611Z,14.10
2017-10-20T18:27:53.210Z,14.10
2017-10-20T18:30:21.563Z,14.10
2017-10-20T18:32:49.635Z,14.10
2017-10-20T18:35:17.651Z,14.10
2017-10-20T18:37:46.178Z,14.10
2017-10-20T18:40:13.770Z,14.10
2017-10-20T18:42:43.734Z,14.10
2017-10-20T18:45:11.447Z,14.10
2017-10-20T18:47:39.091Z,14.10
2017-10-20T18:50:06.933Z,14.10
2017-10-20T18:52:34.515Z,14.10
2017-10-20T18:55:02.233Z,14.10
2017-10-20T18:57:29.849Z,14.10
2017-10-20T18:59:57.433Z,14.10
2017-10-20T19:02:25.080Z,14.10
2017-10-20T19:04:52.698Z,14.10
2017-10-20T19:07:20.309Z,14.10
2017-10-20T19:09:47.942Z,14.00
2017-10-20T19:12:15.564Z,14.10
2017-10-20T19:14:43.902Z,14.10
2017-10-20T19:17:11.502Z,14.00
2017-10-20T19:19:39.114Z,14.00
2017-10-20T19:22:06.757Z,14.10
2017-10-20T19:24:35.164Z,14.10
2017-10-20T19:27:02.813Z,14.00
2017-10-20T19:29:30.411Z,14.00
2017-10-20T19:31:58.788Z,14.00
2017-10-20T19:34:26.434Z,14.10
2017-10-20T19:36:54.046Z,14.00
2017-10-20T19:39:21.694Z,14.10
2017-10-20T19:41:50.050Z,14.00
2017-10-20T19:44:18.430Z,14.00
2017-10-20T19:46:46.021Z,14.00
2017-10-20T19:49:13.585Z,14.00
2017-10-20T19:51:41.199Z,14.00
2017-10-20T19:54:08.832Z,14.00
2017-10-20T19:56:36.716Z,14.00
2017-10-20T19:59:04.309Z,14.00
2017-10-20T20:01:31.939Z,14.00
2017-10-20T20:03:59.522Z,14.00
2017-10-20T20:06:27.135Z,14.00
2017-10-20T20:08:54.716Z,14.00
2017-10-20T20:11:22.321Z,14.00
2017-10-20T20:13:50.715Z,13.90
2017-10-20T20:16:18.324Z,13.90
2017-10-20T20:18:45.942Z,13.80
2017-10-20T20:21:13.579Z,13.80
2017-10-20T20:23:41.157Z,13.80
2017-10-20T20:26:09.626Z,13.90
2017-10-20T20:28:38.035Z,13.90
2017-10-20T20:31:05.599Z,13.90
2017-10-20T20:33:34.092Z,13.90
2017-10-20T20:36:01.659Z,13.90
2017-10-20T20:38:30.084Z,13.90
2017-10-20T20:40:57.680Z,13.90
2017-10-20T20:43:25.261Z,13.90
2017-10-20T20:45:53.323Z,13.90
2017-10-20T20:48:20.901Z,13.90
2017-10-20T20:50:48.510Z,13.90
2017-10-20T20:53:16.116Z,13.90
2017-10-20T20:55:43.830Z,13.80
2017-10-20T20:58:11.446Z,13.80
2017-10-20T21:00:39.027Z,13.70
2017-10-20T21:03:06.621Z,13.70
2017-10-20T21:05:35.048Z,13.60
2017-10-20T21:08:02.668Z,13.60
2017-10-20T21:10:31.006Z,13.60
2017-10-20T21:12:58.678Z,13.60
2017-10-20T21:15:26.285Z,13.60
2017-10-20T21:17:53.895Z,13.60
2017-10-20T21:20:21.470Z,13.60
2017-10-20T21:22:49.065Z,13.50
2017-10-20T21:25:16.630Z,13.50
2017-10-20T21:27:44.230Z,13.50
2017-10-20T21:30:12.552Z,13.40
2017-10-20T21:32:40.898Z,13.20
2017-10-20T21:35:08.489Z,13.20
2017-10-20T21:37:36.815Z,13.10
2017-10-20T21:40:05.203Z,13.10
2017-10-20T21:42:32.793Z,13.10
2017-10-20T21:45:00.370Z,13.10
2017-10-20T21:47:28.212Z,13.00
2017-10-20T21:49:55.848Z,13.00
2017-10-20T21:52:23.395Z,12.90
2017-10-20T21:54:50.975Z,12.80
2017-10-20T21:57:18.730Z,12.70
2017-10-20T21:59:46.299Z,12.70
2017-10-20T22:02:13.914Z,12.60
2017-10-20T22:04:42.289Z,12.40
2017-10-20T22:07:10.675Z,12.40
2017-10-20T22:09:39.006Z,12.30
2017-10-20T22:12:06.561Z,12.30
2017-10-20T22:14:34.159Z,12.20
2017-10-20T22:17:01.772Z,12.20
2017-10-20T22:19:29.375Z,12.20
2017-10-20T22:21:56.967Z,12.10
2017-10-20T22:24:25.299Z,12.00
2017-10-20T22:26:52.889Z,12.00
2017-10-20T22:29:21.235Z,11.80
2017-10-20T22:31:49.600Z,11.80
2017-10-20T22:34:17.417Z,11.80
2017-10-20T22:36:45.035Z,11.80
2017-10-20T22:39:12.608Z,11.80
2017-10-20T22:41:40.216Z,11.70
2017-10-20T22:44:08.590Z,11.50
2017-10-20T22:46:36.939Z,11.50
2017-10-20T22:49:04.606Z,11.50
2017-10-20T22:51:32.191Z,11.40
2017-10-20T22:54:00.590Z,11.40
2017-10-20T22:56:28.942Z,11.40
2017-10-20T22:58:57.383Z,11.40
2017-10-20T23:01:24.983Z,11.40
2017-10-20T23:03:53.319Z,11.40
2017-10-20T23:06:20.899Z,11.40
2017-10-20T23:08:48.596Z,11.40
2017-10-20T23:11:16.927Z,11.40
2017-10-20T23:13:44.519Z,11.40
2017-10-20T23:16:12.307Z,11.30
2017-10-20T23:18:40.708Z,11.30
2017-10-20T23:21:08.309Z,11.30
2017-10-20T23:23:35.878Z,11.20
2017-10-20T23:26:03.502Z,11.10
2017-10-20T23:28:31.099Z,11.10
2017-10-20T23:30:58.682Z,11.10
2017-10-20T23:33:27.135Z,11.10
2017-10-20T23:35:54.723Z,11.10
2017-10-20T23:38:23.090Z,11.20
2017-10-20T23:40:50.663Z,11.20
2017-10-20T23:43:19.031Z,11.20
2017-10-20T23:45:46.619Z,11.20
2017-10-20T23:48:14.973Z,11.30
2017-10-20T23:50:42.558Z,11.30
2017-10-20T23:53:10.899Z,11.40
2017-10-20T23:55:38.498Z,11.30
2017-10-20T23:58:07.038Z,11.40
